sensor_id;sensor_type;location;lat;lon;timestamp;P1;durP1;ratioP1;P2;durP2;ratioP2
10471;SDS011;5283;48.876;8.962;2024-02-21T00:02:22;9.07;;;5.43;;
10471;SDS011;5283;48.876;8.962;2024-02-21T00:04:48;9.93;;;5.40;;
10471;SDS011;5283;48.876;8.962;2024-02-21T00:07:15;9.20;;;4.80;;
10471;SDS011;5283;48.876;8.962;2024-02-21T00:09:42;10.77;;;4.87;;
10471;SDS011;5283;48.876;8.962;2024-02-21T00:12:09;10.77;;;4.13;;
10471;SDS011;5283;48.876;8.962;2024-02-21T00:14:36;9.73;;;4.30;;
10471;SDS011;5283;48.876;8.962;2024-02-21T00:17:02;7.20;;;4.70;;
10471;SDS011;5283;48.876;8.962;2024-02-21T00:19:29;8.57;;;4.50;;
10471;SDS011;5283;48.876;8.962;2024-02-21T00:21:56;9.37;;;4.80;;
10471;SDS011;5283;48.876;8.962;2024-02-21T00:24:23;6.50;;;3.93;;
10471;SDS011;5283;48.876;8.962;2024-02-21T00:26:50;14.17;;;4.90;;
10471;SDS011;5283;48.876;8.962;2024-02-21T00:29:17;10.13;;;3.93;;
10471;SDS011;5283;48.876;8.962;2024-02-21T00:31:43;7.93;;;3.90;;
10471;SDS011;5283;48.876;8.962;2024-02-21T00:34:10;12.00;;;4.40;;
10471;SDS011;5283;48.876;8.962;2024-02-21T00:36:38;8.17;;;4.60;;
10471;SDS011;5283;48.876;8.962;2024-02-21T00:39:05;7.53;;;4.10;;
10471;SDS011;5283;48.876;8.962;2024-02-21T00:41:32;6.00;;;3.87;;
10471;SDS011;5283;48.876;8.962;2024-02-21T00:43:59;11.00;;;4.20;;
10471;SDS011;5283;48.876;8.962;2024-02-21T00:46:26;7.73;;;4.40;;
10471;SDS011;5283;48.876;8.962;2024-02-21T00:48:52;12.87;;;4.77;;
10471;SDS011;5283;48.876;8.962;2024-02-21T00:51:19;8.97;;;4.50;;
10471;SDS011;5283;48.876;8.962;2024-02-21T00:53:46;9.83;;;4.80;;
10471;SDS011;5283;48.876;8.962;2024-02-21T00:56:13;10.10;;;4.53;;
10471;SDS011;5283;48.876;8.962;2024-02-21T00:58:39;9.50;;;4.33;;
10471;SDS011;5283;48.876;8.962;2024-02-21T01:01:06;9.03;;;4.10;;
10471;SDS011;5283;48.876;8.962;2024-02-21T01:03:33;8.77;;;4.33;;
10471;SDS011;5283;48.876;8.962;2024-02-21T01:06:00;10.93;;;4.23;;
10471;SDS011;5283;48.876;8.962;2024-02-21T01:08:26;8.40;;;4.03;;
10471;SDS011;5283;48.876;8.962;2024-02-21T01:10:53;10.63;;;4.43;;
10471;SDS011;5283;48.876;8.962;2024-02-21T01:13:20;12.57;;;4.87;;
10471;SDS011;5283;48.876;8.962;2024-02-21T01:15:46;9.00;;;4.00;;
10471;SDS011;5283;48.876;8.962;2024-02-21T01:18:13;11.77;;;4.03;;
10471;SDS011;5283;48.876;8.962;2024-02-21T01:20:40;10.67;;;3.67;;
10471;SDS011;5283;48.876;8.962;2024-02-21T01:23:07;8.10;;;3.87;;
10471;SDS011;5283;48.876;8.962;2024-02-21T01:25:34;7.07;;;3.03;;
10471;SDS011;5283;48.876;8.962;2024-02-21T01:28:01;6.33;;;3.50;;
10471;SDS011;5283;48.876;8.962;2024-02-21T01:30:27;8.33;;;4.17;;
10471;SDS011;5283;48.876;8.962;2024-02-21T01:32:54;9.43;;;3.60;;
10471;SDS011;5283;48.876;8.962;2024-02-21T01:35:21;7.47;;;3.67;;
10471;SDS011;5283;48.876;8.962;2024-02-21T01:37:48;9.90;;;3.60;;
10471;SDS011;5283;48.876;8.962;2024-02-21T01:40:15;8.73;;;3.80;;
10471;SDS011;5283;48.876;8.962;2024-02-21T01:42:42;8.70;;;2.80;;
10471;SDS011;5283;48.876;8.962;2024-02-21T01:45:09;9.30;;;3.23;;
10471;SDS011;5283;48.876;8.962;2024-02-21T01:47:36;7.43;;;3.30;;
10471;SDS011;5283;48.876;8.962;2024-02-21T01:50:03;6.90;;;2.93;;
10471;SDS011;5283;48.876;8.962;2024-02-21T01:52:31;9.40;;;3.73;;
10471;SDS011;5283;48.876;8.962;2024-02-21T01:54:59;6.77;;;3.20;;
10471;SDS011;5283;48.876;8.962;2024-02-21T01:57:26;6.73;;;3.00;;
10471;SDS011;5283;48.876;8.962;2024-02-21T01:59:55;6.23;;;2.87;;
10471;SDS011;5283;48.876;8.962;2024-02-21T02:02:21;8.47;;;3.10;;
10471;SDS011;5283;48.876;8.962;2024-02-21T02:04:48;5.80;;;2.97;;
10471;SDS011;5283;48.876;8.962;2024-02-21T02:07:15;8.33;;;3.50;;
10471;SDS011;5283;48.876;8.962;2024-02-21T02:09:42;10.53;;;3.63;;
10471;SDS011;5283;48.876;8.962;2024-02-21T02:12:09;10.17;;;3.60;;
10471;SDS011;5283;48.876;8.962;2024-02-21T02:14:36;8.47;;;3.10;;
10471;SDS011;5283;48.876;8.962;2024-02-21T02:17:03;9.77;;;3.57;;
10471;SDS011;5283;48.876;8.962;2024-02-21T02:19:29;8.57;;;3.60;;
10471;SDS011;5283;48.876;8.962;2024-02-21T02:22:03;8.47;;;3.07;;
10471;SDS011;5283;48.876;8.962;2024-02-21T02:24:40;5.27;;;2.67;;
10471;SDS011;5283;48.876;8.962;2024-02-21T02:27:06;7.03;;;3.07;;
10471;SDS011;5283;48.876;8.962;2024-02-21T02:29:33;7.10;;;2.83;;
10471;SDS011;5283;48.876;8.962;2024-02-21T02:32:00;7.73;;;3.10;;
10471;SDS011;5283;48.876;8.962;2024-02-21T02:34:27;6.83;;;3.33;;
10471;SDS011;5283;48.876;8.962;2024-02-21T02:36:53;8.43;;;3.40;;
10471;SDS011;5283;48.876;8.962;2024-02-21T02:39:21;9.07;;;3.00;;
10471;SDS011;5283;48.876;8.962;2024-02-21T02:41:47;6.90;;;3.43;;
10471;SDS011;5283;48.876;8.962;2024-02-21T02:44:14;7.60;;;3.40;;
10471;SDS011;5283;48.876;8.962;2024-02-21T02:46:41;7.47;;;3.00;;
10471;SDS011;5283;48.876;8.962;2024-02-21T02:49:08;5.93;;;3.60;;
10471;SDS011;5283;48.876;8.962;2024-02-21T02:51:35;9.40;;;3.47;;
10471;SDS011;5283;48.876;8.962;2024-02-21T02:54:02;5.20;;;2.93;;
10471;SDS011;5283;48.876;8.962;2024-02-21T02:56:29;9.33;;;3.43;;
10471;SDS011;5283;48.876;8.962;2024-02-21T02:58:55;7.57;;;3.00;;
10471;SDS011;5283;48.876;8.962;2024-02-21T03:01:22;7.77;;;3.60;;
10471;SDS011;5283;48.876;8.962;2024-02-21T03:03:49;10.30;;;3.47;;
10471;SDS011;5283;48.876;8.962;2024-02-21T03:06:15;7.17;;;3.63;;
10471;SDS011;5283;48.876;8.962;2024-02-21T03:08:44;7.03;;;3.40;;
10471;SDS011;5283;48.876;8.962;2024-02-21T03:11:11;13.23;;;4.00;;
10471;SDS011;5283;48.876;8.962;2024-02-21T03:13:37;12.43;;;3.43;;
10471;SDS011;5283;48.876;8.962;2024-02-21T03:16:05;7.80;;;3.57;;
10471;SDS011;5283;48.876;8.962;2024-02-21T03:18:32;8.77;;;3.57;;
10471;SDS011;5283;48.876;8.962;2024-02-21T03:20:58;8.57;;;3.17;;
10471;SDS011;5283;48.876;8.962;2024-02-21T03:23:25;8.50;;;3.77;;
10471;SDS011;5283;48.876;8.962;2024-02-21T03:25:52;9.40;;;3.80;;
10471;SDS011;5283;48.876;8.962;2024-02-21T03:28:19;9.70;;;4.07;;
10471;SDS011;5283;48.876;8.962;2024-02-21T03:30:45;8.10;;;3.80;;
10471;SDS011;5283;48.876;8.962;2024-02-21T03:33:12;8.80;;;3.73;;
10471;SDS011;5283;48.876;8.962;2024-02-21T03:35:39;11.47;;;3.73;;
10471;SDS011;5283;48.876;8.962;2024-02-21T03:38:05;8.00;;;3.97;;
10471;SDS011;5283;48.876;8.962;2024-02-21T03:40:32;13.17;;;4.60;;
10471;SDS011;5283;48.876;8.962;2024-02-21T03:42:59;9.80;;;4.23;;
10471;SDS011;5283;48.876;8.962;2024-02-21T03:45:25;6.63;;;4.10;;
10471;SDS011;5283;48.876;8.962;2024-02-21T03:47:52;14.00;;;4.33;;
10471;SDS011;5283;48.876;8.962;2024-02-21T03:50:19;10.87;;;4.27;;
10471;SDS011;5283;48.876;8.962;2024-02-21T03:52:45;10.67;;;3.90;;
10471;SDS011;5283;48.876;8.962;2024-02-21T03:55:12;12.10;;;4.27;;
10471;SDS011;5283;48.876;8.962;2024-02-21T03:57:39;10.00;;;4.00;;
10471;SDS011;5283;48.876;8.962;2024-02-21T04:00:06;10.30;;;3.50;;
10471;SDS011;5283;48.876;8.962;2024-02-21T04:02:37;7.17;;;3.40;;
10471;SDS011;5283;48.876;8.962;2024-02-21T04:05:03;7.73;;;3.83;;
10471;SDS011;5283;48.876;8.962;2024-02-21T04:07:31;9.93;;;3.80;;
10471;SDS011;5283;48.876;8.962;2024-02-21T04:09:57;11.47;;;3.67;;
10471;SDS011;5283;48.876;8.962;2024-02-21T04:12:24;9.90;;;3.60;;
10471;SDS011;5283;48.876;8.962;2024-02-21T04:14:51;7.27;;;3.87;;
10471;SDS011;5283;48.876;8.962;2024-02-21T04:17:17;7.60;;;4.40;;
10471;SDS011;5283;48.876;8.962;2024-02-21T04:19:44;12.20;;;4.07;;
10471;SDS011;5283;48.876;8.962;2024-02-21T04:22:11;6.63;;;3.40;;
10471;SDS011;5283;48.876;8.962;2024-02-21T04:24:37;10.03;;;4.10;;
10471;SDS011;5283;48.876;8.962;2024-02-21T04:27:04;11.90;;;4.20;;
10471;SDS011;5283;48.876;8.962;2024-02-21T04:29:31;11.30;;;3.93;;
10471;SDS011;5283;48.876;8.962;2024-02-21T04:31:57;8.70;;;4.03;;
10471;SDS011;5283;48.876;8.962;2024-02-21T04:34:24;10.83;;;4.50;;
10471;SDS011;5283;48.876;8.962;2024-02-21T04:36:51;8.00;;;4.27;;
10471;SDS011;5283;48.876;8.962;2024-02-21T04:39:19;8.83;;;4.17;;
10471;SDS011;5283;48.876;8.962;2024-02-21T04:41:45;7.70;;;3.73;;
10471;SDS011;5283;48.876;8.962;2024-02-21T04:44:12;9.03;;;4.37;;
10471;SDS011;5283;48.876;8.962;2024-02-21T04:46:41;8.20;;;4.23;;
10471;SDS011;5283;48.876;8.962;2024-02-21T04:49:08;10.13;;;4.03;;
10471;SDS011;5283;48.876;8.962;2024-02-21T04:51:35;12.23;;;4.43;;
10471;SDS011;5283;48.876;8.962;2024-02-21T04:54:02;11.30;;;4.30;;
10471;SDS011;5283;48.876;8.962;2024-02-21T04:56:29;8.67;;;3.80;;
10471;SDS011;5283;48.876;8.962;2024-02-21T04:58:56;9.57;;;3.47;;
10471;SDS011;5283;48.876;8.962;2024-02-21T05:01:23;10.00;;;3.90;;
10471;SDS011;5283;48.876;8.962;2024-02-21T05:03:50;11.30;;;4.60;;
10471;SDS011;5283;48.876;8.962;2024-02-21T05:06:16;9.63;;;4.33;;
10471;SDS011;5283;48.876;8.962;2024-02-21T05:08:43;10.23;;;4.10;;
10471;SDS011;5283;48.876;8.962;2024-02-21T05:11:10;10.63;;;4.73;;
10471;SDS011;5283;48.876;8.962;2024-02-21T05:13:36;8.73;;;4.70;;
10471;SDS011;5283;48.876;8.962;2024-02-21T05:16:03;9.13;;;3.93;;
10471;SDS011;5283;48.876;8.962;2024-02-21T05:18:30;10.07;;;5.10;;
10471;SDS011;5283;48.876;8.962;2024-02-21T05:20:57;9.30;;;3.90;;
10471;SDS011;5283;48.876;8.962;2024-02-21T05:23:24;10.77;;;4.13;;
10471;SDS011;5283;48.876;8.962;2024-02-21T05:25:51;8.90;;;4.70;;
10471;SDS011;5283;48.876;8.962;2024-02-21T05:28:18;5.23;;;3.67;;
10471;SDS011;5283;48.876;8.962;2024-02-21T05:30:45;10.53;;;4.37;;
10471;SDS011;5283;48.876;8.962;2024-02-21T05:33:12;9.13;;;4.37;;
10471;SDS011;5283;48.876;8.962;2024-02-21T05:35:39;10.77;;;4.60;;
10471;SDS011;5283;48.876;8.962;2024-02-21T05:38:05;7.37;;;4.27;;
10471;SDS011;5283;48.876;8.962;2024-02-21T05:40:37;11.33;;;4.03;;
10471;SDS011;5283;48.876;8.962;2024-02-21T05:43:04;10.73;;;4.20;;
10471;SDS011;5283;48.876;8.962;2024-02-21T05:45:31;8.67;;;4.00;;
10471;SDS011;5283;48.876;8.962;2024-02-21T05:47:58;6.50;;;3.83;;
10471;SDS011;5283;48.876;8.962;2024-02-21T05:50:25;7.73;;;3.70;;
10471;SDS011;5283;48.876;8.962;2024-02-21T05:52:53;7.10;;;3.83;;
10471;SDS011;5283;48.876;8.962;2024-02-21T05:55:20;10.40;;;4.00;;
10471;SDS011;5283;48.876;8.962;2024-02-21T05:57:48;11.97;;;3.93;;
10471;SDS011;5283;48.876;8.962;2024-02-21T06:00:15;8.40;;;3.60;;
10471;SDS011;5283;48.876;8.962;2024-02-21T06:02:42;8.57;;;3.67;;
10471;SDS011;5283;48.876;8.962;2024-02-21T06:05:09;8.53;;;3.87;;
10471;SDS011;5283;48.876;8.962;2024-02-21T06:07:36;8.27;;;4.67;;
10471;SDS011;5283;48.876;8.962;2024-02-21T06:10:03;10.00;;;4.67;;
10471;SDS011;5283;48.876;8.962;2024-02-21T06:12:30;7.20;;;4.03;;
10471;SDS011;5283;48.876;8.962;2024-02-21T06:14:57;10.67;;;4.33;;
10471;SDS011;5283;48.876;8.962;2024-02-21T06:17:23;11.50;;;4.13;;
10471;SDS011;5283;48.876;8.962;2024-02-21T06:19:50;12.07;;;4.20;;
10471;SDS011;5283;48.876;8.962;2024-02-21T06:22:17;10.03;;;4.00;;
10471;SDS011;5283;48.876;8.962;2024-02-21T06:24:43;8.83;;;3.67;;
10471;SDS011;5283;48.876;8.962;2024-02-21T06:27:10;10.10;;;4.27;;
10471;SDS011;5283;48.876;8.962;2024-02-21T06:29:37;10.37;;;5.07;;
10471;SDS011;5283;48.876;8.962;2024-02-21T06:32:04;11.80;;;5.77;;
10471;SDS011;5283;48.876;8.962;2024-02-21T06:34:31;13.07;;;6.10;;
10471;SDS011;5283;48.876;8.962;2024-02-21T06:36:59;10.80;;;4.90;;
10471;SDS011;5283;48.876;8.962;2024-02-21T06:39:26;10.07;;;4.57;;
10471;SDS011;5283;48.876;8.962;2024-02-21T06:41:55;10.17;;;4.70;;
10471;SDS011;5283;48.876;8.962;2024-02-21T06:44:24;12.73;;;4.17;;
10471;SDS011;5283;48.876;8.962;2024-02-21T06:46:51;11.50;;;4.60;;
10471;SDS011;5283;48.876;8.962;2024-02-21T06:49:18;12.23;;;4.70;;
10471;SDS011;5283;48.876;8.962;2024-02-21T06:51:45;11.60;;;4.90;;
10471;SDS011;5283;48.876;8.962;2024-02-21T06:54:12;12.60;;;5.27;;
10471;SDS011;5283;48.876;8.962;2024-02-21T06:56:39;9.17;;;5.00;;
10471;SDS011;5283;48.876;8.962;2024-02-21T06:59:06;10.60;;;4.87;;
10471;SDS011;5283;48.876;8.962;2024-02-21T07:01:33;10.17;;;4.80;;
10471;SDS011;5283;48.876;8.962;2024-02-21T07:04:00;9.27;;;4.63;;
10471;SDS011;5283;48.876;8.962;2024-02-21T07:06:26;12.07;;;5.20;;
10471;SDS011;5283;48.876;8.962;2024-02-21T07:08:53;12.33;;;4.73;;
10471;SDS011;5283;48.876;8.962;2024-02-21T07:11:20;10.43;;;4.90;;
10471;SDS011;5283;48.876;8.962;2024-02-21T07:13:46;9.57;;;4.50;;
10471;SDS011;5283;48.876;8.962;2024-02-21T07:16:13;12.97;;;4.73;;
10471;SDS011;5283;48.876;8.962;2024-02-21T07:18:40;12.70;;;5.30;;
10471;SDS011;5283;48.876;8.962;2024-02-21T07:21:06;10.23;;;4.33;;
10471;SDS011;5283;48.876;8.962;2024-02-21T07:23:33;7.70;;;4.43;;
10471;SDS011;5283;48.876;8.962;2024-02-21T07:26:00;10.37;;;4.57;;
10471;SDS011;5283;48.876;8.962;2024-02-21T07:28:27;9.83;;;4.70;;
10471;SDS011;5283;48.876;8.962;2024-02-21T07:30:54;8.50;;;4.37;;
10471;SDS011;5283;48.876;8.962;2024-02-21T07:33:20;13.30;;;5.00;;
10471;SDS011;5283;48.876;8.962;2024-02-21T07:35:47;9.60;;;4.57;;
10471;SDS011;5283;48.876;8.962;2024-02-21T07:38:14;9.23;;;4.07;;
10471;SDS011;5283;48.876;8.962;2024-02-21T07:40:40;9.47;;;3.70;;
10471;SDS011;5283;48.876;8.962;2024-02-21T07:43:07;14.17;;;3.70;;
10471;SDS011;5283;48.876;8.962;2024-02-21T07:45:34;10.23;;;4.07;;
10471;SDS011;5283;48.876;8.962;2024-02-21T07:48:00;6.60;;;3.43;;
10471;SDS011;5283;48.876;8.962;2024-02-21T07:50:28;9.93;;;2.77;;
10471;SDS011;5283;48.876;8.962;2024-02-21T07:52:55;12.70;;;11.17;;
10471;SDS011;5283;48.876;8.962;2024-02-21T07:55:21;6.67;;;2.70;;
10471;SDS011;5283;48.876;8.962;2024-02-21T07:57:48;7.77;;;2.70;;
10471;SDS011;5283;48.876;8.962;2024-02-21T08:00:15;6.47;;;2.53;;
10471;SDS011;5283;48.876;8.962;2024-02-21T08:02:46;4.67;;;2.40;;
10471;SDS011;5283;48.876;8.962;2024-02-21T08:05:12;7.57;;;2.33;;
10471;SDS011;5283;48.876;8.962;2024-02-21T08:07:39;7.93;;;2.40;;
10471;SDS011;5283;48.876;8.962;2024-02-21T08:10:07;6.57;;;2.83;;
10471;SDS011;5283;48.876;8.962;2024-02-21T08:12:36;4.97;;;2.17;;
10471;SDS011;5283;48.876;8.962;2024-02-21T08:15:04;6.93;;;2.10;;
10471;SDS011;5283;48.876;8.962;2024-02-21T08:17:31;4.57;;;2.13;;
10471;SDS011;5283;48.876;8.962;2024-02-21T08:19:58;3.77;;;2.23;;
10471;SDS011;5283;48.876;8.962;2024-02-21T08:22:24;68.00;;;5.03;;
10471;SDS011;5283;48.876;8.962;2024-02-21T08:24:52;5.60;;;2.50;;
10471;SDS011;5283;48.876;8.962;2024-02-21T08:27:19;5.83;;;2.57;;
10471;SDS011;5283;48.876;8.962;2024-02-21T08:29:46;5.10;;;2.50;;
10471;SDS011;5283;48.876;8.962;2024-02-21T08:32:12;4.93;;;2.07;;
10471;SDS011;5283;48.876;8.962;2024-02-21T08:34:39;5.63;;;2.50;;
10471;SDS011;5283;48.876;8.962;2024-02-21T08:37:06;3.47;;;2.10;;
10471;SDS011;5283;48.876;8.962;2024-02-21T08:39:32;6.93;;;2.37;;
10471;SDS011;5283;48.876;8.962;2024-02-21T08:41:59;6.97;;;2.20;;
10471;SDS011;5283;48.876;8.962;2024-02-21T08:44:27;5.03;;;2.07;;
10471;SDS011;5283;48.876;8.962;2024-02-21T08:46:54;4.93;;;2.63;;
10471;SDS011;5283;48.876;8.962;2024-02-21T08:49:21;4.70;;;2.40;;
10471;SDS011;5283;48.876;8.962;2024-02-21T08:51:49;5.10;;;2.10;;
10471;SDS011;5283;48.876;8.962;2024-02-21T08:54:15;4.33;;;2.00;;
10471;SDS011;5283;48.876;8.962;2024-02-21T08:56:42;2.57;;;1.60;;
10471;SDS011;5283;48.876;8.962;2024-02-21T08:59:09;5.90;;;2.10;;
10471;SDS011;5283;48.876;8.962;2024-02-21T09:01:36;7.63;;;2.23;;
10471;SDS011;5283;48.876;8.962;2024-02-21T09:04:03;5.03;;;1.70;;
10471;SDS011;5283;48.876;8.962;2024-02-21T09:06:30;3.87;;;2.40;;
10471;SDS011;5283;48.876;8.962;2024-02-21T09:08:59;4.57;;;1.93;;
10471;SDS011;5283;48.876;8.962;2024-02-21T09:11:25;8.50;;;2.30;;
10471;SDS011;5283;48.876;8.962;2024-02-21T09:13:53;5.90;;;2.10;;
10471;SDS011;5283;48.876;8.962;2024-02-21T09:16:20;5.87;;;2.27;;
10471;SDS011;5283;48.876;8.962;2024-02-21T09:18:47;7.17;;;2.00;;
10471;SDS011;5283;48.876;8.962;2024-02-21T09:21:14;5.63;;;2.10;;
10471;SDS011;5283;48.876;8.962;2024-02-21T09:23:40;7.13;;;2.23;;
10471;SDS011;5283;48.876;8.962;2024-02-21T09:26:07;5.70;;;1.90;;
10471;SDS011;5283;48.876;8.962;2024-02-21T09:28:36;7.33;;;2.17;;
10471;SDS011;5283;48.876;8.962;2024-02-21T09:31:03;5.07;;;1.57;;
10471;SDS011;5283;48.876;8.962;2024-02-21T09:33:30;6.30;;;1.70;;
10471;SDS011;5283;48.876;8.962;2024-02-21T09:35:57;7.10;;;1.93;;
10471;SDS011;5283;48.876;8.962;2024-02-21T09:38:24;4.63;;;1.60;;
10471;SDS011;5283;48.876;8.962;2024-02-21T09:40:57;6.63;;;2.20;;
10471;SDS011;5283;48.876;8.962;2024-02-21T09:43:29;6.50;;;2.30;;
10471;SDS011;5283;48.876;8.962;2024-02-21T09:45:55;4.73;;;2.13;;
10471;SDS011;5283;48.876;8.962;2024-02-21T09:50:59;5.13;;;1.80;;
10471;SDS011;5283;48.876;8.962;2024-02-21T09:53:28;5.47;;;1.70;;
10471;SDS011;5283;48.876;8.962;2024-02-21T09:55:58;5.23;;;2.23;;
10471;SDS011;5283;48.876;8.962;2024-02-21T09:58:25;8.03;;;2.00;;
10471;SDS011;5283;48.876;8.962;2024-02-21T10:00:53;4.73;;;2.10;;
10471;SDS011;5283;48.876;8.962;2024-02-21T10:03:20;3.67;;;1.60;;
10471;SDS011;5283;48.876;8.962;2024-02-21T10:05:48;6.83;;;2.20;;
10471;SDS011;5283;48.876;8.962;2024-02-21T10:08:19;4.23;;;1.90;;
10471;SDS011;5283;48.876;8.962;2024-02-21T10:10:46;6.97;;;2.20;;
10471;SDS011;5283;48.876;8.962;2024-02-21T10:13:29;5.70;;;1.93;;
10471;SDS011;5283;48.876;8.962;2024-02-21T10:16:02;5.63;;;2.17;;
10471;SDS011;5283;48.876;8.962;2024-02-21T10:18:30;5.57;;;2.00;;
10471;SDS011;5283;48.876;8.962;2024-02-21T10:21:03;3.57;;;1.70;;
10471;SDS011;5283;48.876;8.962;2024-02-21T10:23:44;6.27;;;1.90;;
10471;SDS011;5283;48.876;8.962;2024-02-21T10:26:12;4.03;;;1.80;;
10471;SDS011;5283;48.876;8.962;2024-02-21T10:28:39;4.20;;;1.63;;
10471;SDS011;5283;48.876;8.962;2024-02-21T10:31:11;5.03;;;1.60;;
10471;SDS011;5283;48.876;8.962;2024-02-21T10:33:53;5.53;;;1.90;;
10471;SDS011;5283;48.876;8.962;2024-02-21T10:36:20;4.10;;;1.80;;
10471;SDS011;5283;48.876;8.962;2024-02-21T10:38:47;4.67;;;1.73;;
10471;SDS011;5283;48.876;8.962;2024-02-21T10:41:14;4.43;;;1.53;;
10471;SDS011;5283;48.876;8.962;2024-02-21T10:43:42;5.90;;;1.73;;
10471;SDS011;5283;48.876;8.962;2024-02-21T10:46:15;3.73;;;1.60;;
10471;SDS011;5283;48.876;8.962;2024-02-21T10:48:45;5.90;;;1.97;;
10471;SDS011;5283;48.876;8.962;2024-02-21T10:51:20;6.63;;;2.30;;
10471;SDS011;5283;48.876;8.962;2024-02-21T10:56:26;4.93;;;1.70;;
10471;SDS011;5283;48.876;8.962;2024-02-21T10:59:00;3.70;;;1.87;;
10471;SDS011;5283;48.876;8.962;2024-02-21T11:01:28;5.80;;;1.83;;
10471;SDS011;5283;48.876;8.962;2024-02-21T11:06:32;8.13;;;2.07;;
10471;SDS011;5283;48.876;8.962;2024-02-21T11:09:04;5.33;;;2.20;;
10471;SDS011;5283;48.876;8.962;2024-02-21T11:11:35;3.83;;;1.60;;
10471;SDS011;5283;48.876;8.962;2024-02-21T11:14:08;6.93;;;2.03;;
10471;SDS011;5283;48.876;8.962;2024-02-21T11:16:39;5.47;;;1.90;;
10471;SDS011;5283;48.876;8.962;2024-02-21T11:19:19;4.97;;;1.97;;
10471;SDS011;5283;48.876;8.962;2024-02-21T11:21:50;3.13;;;1.50;;
10471;SDS011;5283;48.876;8.962;2024-02-21T11:24:27;5.33;;;1.83;;
10471;SDS011;5283;48.876;8.962;2024-02-21T11:27:20;4.10;;;1.80;;
10471;SDS011;5283;48.876;8.962;2024-02-21T11:29:48;5.90;;;1.93;;
10471;SDS011;5283;48.876;8.962;2024-02-21T11:32:20;3.93;;;1.93;;
10471;SDS011;5283;48.876;8.962;2024-02-21T11:37:31;4.17;;;1.57;;
10471;SDS011;5283;48.876;8.962;2024-02-21T11:40:05;4.03;;;1.67;;
10471;SDS011;5283;48.876;8.962;2024-02-21T11:42:36;4.23;;;1.50;;
10471;SDS011;5283;48.876;8.962;2024-02-21T11:45:03;5.70;;;1.80;;
10471;SDS011;5283;48.876;8.962;2024-02-21T11:47:30;4.77;;;1.87;;
10471;SDS011;5283;48.876;8.962;2024-02-21T11:49:57;2.87;;;1.63;;
10471;SDS011;5283;48.876;8.962;2024-02-21T11:52:24;5.30;;;1.80;;
10471;SDS011;5283;48.876;8.962;2024-02-21T11:54:52;3.87;;;1.70;;
10471;SDS011;5283;48.876;8.962;2024-02-21T11:57:19;4.07;;;2.00;;
10471;SDS011;5283;48.876;8.962;2024-02-21T11:59:46;3.50;;;1.97;;
10471;SDS011;5283;48.876;8.962;2024-02-21T12:02:14;4.20;;;2.00;;
10471;SDS011;5283;48.876;8.962;2024-02-21T12:04:42;6.13;;;1.87;;
10471;SDS011;5283;48.876;8.962;2024-02-21T12:07:09;3.53;;;1.63;;
10471;SDS011;5283;48.876;8.962;2024-02-21T12:09:36;4.17;;;2.63;;
10471;SDS011;5283;48.876;8.962;2024-02-21T12:12:03;5.10;;;1.97;;
10471;SDS011;5283;48.876;8.962;2024-02-21T12:14:32;8.77;;;2.27;;
10471;SDS011;5283;48.876;8.962;2024-02-21T12:17:01;6.80;;;1.80;;
10471;SDS011;5283;48.876;8.962;2024-02-21T12:19:32;6.30;;;1.90;;
10471;SDS011;5283;48.876;8.962;2024-02-21T12:21:59;4.77;;;2.10;;
10471;SDS011;5283;48.876;8.962;2024-02-21T12:24:27;5.33;;;2.03;;
10471;SDS011;5283;48.876;8.962;2024-02-21T12:26:55;4.93;;;1.70;;
10471;SDS011;5283;48.876;8.962;2024-02-21T12:29:23;5.40;;;2.00;;
10471;SDS011;5283;48.876;8.962;2024-02-21T12:31:53;6.13;;;2.20;;
10471;SDS011;5283;48.876;8.962;2024-02-21T12:34:21;6.67;;;2.30;;
10471;SDS011;5283;48.876;8.962;2024-02-21T12:36:52;3.43;;;1.80;;
10471;SDS011;5283;48.876;8.962;2024-02-21T12:39:19;7.10;;;2.47;;
10471;SDS011;5283;48.876;8.962;2024-02-21T12:41:46;4.37;;;2.27;;
10471;SDS011;5283;48.876;8.962;2024-02-21T12:44:12;5.63;;;2.00;;
10471;SDS011;5283;48.876;8.962;2024-02-21T12:46:39;5.23;;;2.17;;
10471;SDS011;5283;48.876;8.962;2024-02-21T12:49:06;5.97;;;2.20;;
10471;SDS011;5283;48.876;8.962;2024-02-21T12:51:36;5.83;;;1.93;;
10471;SDS011;5283;48.876;8.962;2024-02-21T12:54:04;5.13;;;1.97;;
10471;SDS011;5283;48.876;8.962;2024-02-21T12:56:30;5.03;;;1.73;;
10471;SDS011;5283;48.876;8.962;2024-02-21T12:58:57;3.53;;;1.90;;
10471;SDS011;5283;48.876;8.962;2024-02-21T13:01:25;6.53;;;2.37;;
10471;SDS011;5283;48.876;8.962;2024-02-21T13:03:52;4.43;;;2.27;;
10471;SDS011;5283;48.876;8.962;2024-02-21T13:06:20;6.07;;;2.20;;
10471;SDS011;5283;48.876;8.962;2024-02-21T13:08:46;7.13;;;2.03;;
10471;SDS011;5283;48.876;8.962;2024-02-21T13:11:13;6.63;;;2.60;;
10471;SDS011;5283;48.876;8.962;2024-02-21T13:13:40;4.30;;;1.83;;
10471;SDS011;5283;48.876;8.962;2024-02-21T13:16:07;5.23;;;1.97;;
10471;SDS011;5283;48.876;8.962;2024-02-21T13:18:36;5.03;;;2.33;;
10471;SDS011;5283;48.876;8.962;2024-02-21T13:21:08;5.00;;;2.17;;
10471;SDS011;5283;48.876;8.962;2024-02-21T13:23:35;5.60;;;2.30;;
10471;SDS011;5283;48.876;8.962;2024-02-21T13:26:02;4.40;;;2.00;;
10471;SDS011;5283;48.876;8.962;2024-02-21T13:28:29;4.03;;;2.00;;
10471;SDS011;5283;48.876;8.962;2024-02-21T13:30:55;7.77;;;2.40;;
10471;SDS011;5283;48.876;8.962;2024-02-21T13:33:23;6.60;;;1.97;;
10471;SDS011;5283;48.876;8.962;2024-02-21T13:35:50;3.37;;;1.70;;
10471;SDS011;5283;48.876;8.962;2024-02-21T13:38:16;6.50;;;2.23;;
10471;SDS011;5283;48.876;8.962;2024-02-21T13:40:44;7.37;;;2.50;;
10471;SDS011;5283;48.876;8.962;2024-02-21T13:43:11;5.70;;;2.43;;
10471;SDS011;5283;48.876;8.962;2024-02-21T13:45:38;5.53;;;2.10;;
10471;SDS011;5283;48.876;8.962;2024-02-21T13:48:07;7.70;;;2.63;;
10471;SDS011;5283;48.876;8.962;2024-02-21T13:50:37;7.63;;;2.80;;
10471;SDS011;5283;48.876;8.962;2024-02-21T13:53:08;6.53;;;2.63;;
10471;SDS011;5283;48.876;8.962;2024-02-21T13:55:36;7.37;;;2.27;;
10471;SDS011;5283;48.876;8.962;2024-02-21T13:58:03;6.77;;;2.23;;
10471;SDS011;5283;48.876;8.962;2024-02-21T14:00:30;9.50;;;2.73;;
10471;SDS011;5283;48.876;8.962;2024-02-21T14:02:56;6.53;;;2.73;;
10471;SDS011;5283;48.876;8.962;2024-02-21T14:05:24;6.80;;;2.40;;
10471;SDS011;5283;48.876;8.962;2024-02-21T14:07:51;7.30;;;2.50;;
10471;SDS011;5283;48.876;8.962;2024-02-21T14:10:20;3.97;;;2.20;;
10471;SDS011;5283;48.876;8.962;2024-02-21T14:12:47;4.73;;;2.30;;
10471;SDS011;5283;48.876;8.962;2024-02-21T14:15:14;8.00;;;2.17;;
10471;SDS011;5283;48.876;8.962;2024-02-21T14:17:42;13.77;;;3.20;;
10471;SDS011;5283;48.876;8.962;2024-02-21T14:20:09;9.07;;;2.90;;
10471;SDS011;5283;48.876;8.962;2024-02-21T14:22:37;3.67;;;2.37;;
10471;SDS011;5283;48.876;8.962;2024-02-21T14:25:04;10.27;;;3.30;;
10471;SDS011;5283;48.876;8.962;2024-02-21T14:27:33;5.77;;;2.40;;
10471;SDS011;5283;48.876;8.962;2024-02-21T14:30:02;6.53;;;2.37;;
10471;SDS011;5283;48.876;8.962;2024-02-21T14:32:29;6.20;;;2.40;;
10471;SDS011;5283;48.876;8.962;2024-02-21T14:34:57;7.63;;;2.60;;
10471;SDS011;5283;48.876;8.962;2024-02-21T14:37:25;8.50;;;2.90;;
10471;SDS011;5283;48.876;8.962;2024-02-21T14:39:52;4.93;;;2.20;;
10471;SDS011;5283;48.876;8.962;2024-02-21T14:42:18;4.63;;;2.20;;
10471;SDS011;5283;48.876;8.962;2024-02-21T14:44:45;8.00;;;2.80;;
10471;SDS011;5283;48.876;8.962;2024-02-21T14:47:12;6.33;;;2.80;;
10471;SDS011;5283;48.876;8.962;2024-02-21T14:49:38;8.87;;;4.20;;
10471;SDS011;5283;48.876;8.962;2024-02-21T14:52:05;7.03;;;3.30;;
10471;SDS011;5283;48.876;8.962;2024-02-21T14:54:32;5.77;;;2.57;;
10471;SDS011;5283;48.876;8.962;2024-02-21T14:56:59;9.00;;;4.07;;
10471;SDS011;5283;48.876;8.962;2024-02-21T14:59:27;8.53;;;3.50;;
10471;SDS011;5283;48.876;8.962;2024-02-21T15:01:54;7.67;;;3.20;;
10471;SDS011;5283;48.876;8.962;2024-02-21T15:04:21;5.10;;;2.37;;
10471;SDS011;5283;48.876;8.962;2024-02-21T15:06:49;5.60;;;2.20;;
10471;SDS011;5283;48.876;8.962;2024-02-21T15:09:15;5.87;;;2.40;;
10471;SDS011;5283;48.876;8.962;2024-02-21T15:11:45;4.27;;;2.00;;